Time;durP1;ratioP1;P1;durP2;ratioP2;P2;SDS_P1;SDS_P2;PMS_P1;PMS_P2;Temp;Humidity;BMP_temperature;BMP_pressure;BME280_temperature;BME280_humidity;BME280_pressure;Samples;Min_cycle;Max_cycle;Signal;HPM_P1;HPM_P2
2023/06/02 00:00:42;;;;;;;19.33;3.17;;;10.80;96.50;;;;;;5043518;28;20057;-64
2023/06/02 00:03:10;;;;;;;28.48;3.78;;;10.80;94.50;;;;;;5044833;28;20047;-64
2023/06/02 00:05:38;;;;;;;20.77;3.53;;;10.80;96.40;;;;;;5043932;28;20454;-64
2023/06/02 00:08:04;;;;;;;15.95;3.33;;;10.80;96.20;;;;;;5046484;28;20055;-64
2023/06/02 00:10:30;;;;;;;19.13;2.25;;;10.90;96.20;;;;;;5043827;28;20084;-64
2023/06/02 00:12:56;;;;;;;16.33;3.30;;;10.90;98.70;;;;;;5028498;28;20099;-65
2023/06/02 00:15:21;;;;;;;15.23;2.90;;;10.90;99.90;;;;;;5024692;28;20598;-64
2023/06/02 00:17:48;;;;;;;17.33;2.97;;;10.90;99.80;;;;;;5027758;28;20127;-64
2023/06/02 00:20:14;;;;;;;15.10;2.78;;;10.90;99.80;;;;;;5045811;28;20036;-64
2023/06/02 00:22:41;;;;;;;10.82;2.40;;;10.90;99.90;;;;;;5045048;28;20116;-65
2023/06/02 00:25:07;;;;;;;12.65;2.67;;;10.90;98.90;;;;;;5045773;28;20045;-65
2023/06/02 00:27:33;;;;;;;12.57;2.67;;;10.80;99.30;;;;;;5044060;28;20053;-65
2023/06/02 00:30:00;;;;;;;15.75;3.25;;;10.80;99.80;;;;;;5028575;28;20124;-64
2023/06/02 00:32:26;;;;;;;21.45;2.95;;;10.80;99.90;;;;;;5044256;28;20098;-64
2023/06/02 00:34:51;;;;;;;14.98;2.72;;;10.70;99.90;;;;;;5027588;28;20045;-64
2023/06/02 00:37:17;;;;;;;17.45;2.88;;;10.70;99.90;;;;;;5039077;28;20084;-64
2023/06/02 00:39:43;;;;;;;18.83;2.70;;;10.60;99.90;;;;;;5039983;28;20392;-64
2023/06/02 00:42:10;;;;;;;21.20;2.70;;;10.60;99.90;;;;;;5045773;28;20079;-64
2023/06/02 00:44:35;;;;;;;14.82;2.78;;;10.70;99.90;;;;;;5043729;28;20394;-65
2023/06/02 00:47:01;;;;;;;20.60;2.97;;;10.70;99.90;;;;;;5049291;28;20049;-64
2023/06/02 00:49:27;;;;;;;15.10;2.60;;;10.70;99.90;;;;;;5047583;28;20124;-65
2023/06/02 00:51:54;;;;;;;19.13;3.35;;;10.70;99.90;;;;;;5030187;28;20053;-65
2023/06/02 00:54:20;;;;;;;17.00;3.47;;;10.70;99.90;;;;;;5048027;28;20033;-64
2023/06/02 00:56:46;;;;;;;17.20;2.70;;;10.80;99.90;;;;;;5029965;28;20095;-65
2023/06/02 00:59:12;;;;;;;18.45;3.78;;;10.80;99.90;;;;;;5035009;28;20106;-64
2023/06/02 01:01:39;;;;;;;20.42;3.38;;;10.80;99.90;;;;;;5047868;28;20081;-64
2023/06/02 01:04:05;;;;;;;22.92;3.20;;;10.90;99.90;;;;;;5029876;28;20041;-64
2023/06/02 01:06:37;;;;;;;13.73;2.08;;;10.90;99.90;;;;;;5027462;28;20049;-65
2023/06/02 01:09:10;;;;;;;22.77;3.25;;;10.90;99.90;;;;;;5033848;28;20150;-65
2023/06/02 01:11:36;;;;;;;16.85;3.22;;;10.90;99.90;;;;;;5018151;28;20061;-64
2023/06/02 01:14:02;;;;;;;17.60;2.70;;;10.90;99.90;;;;;;5031106;28;20120;-64
2023/06/02 01:16:30;;;;;;;14.13;2.38;;;10.90;99.90;;;;;;5048394;28;20127;-64
2023/06/02 01:18:59;;;;;;;20.60;2.80;;;11.00;99.90;;;;;;5047548;28;20151;-64
2023/06/02 01:21:34;;;;;;;17.05;2.92;;;10.90;99.90;;;;;;5032202;28;20570;-65
2023/06/02 01:24:01;;;;;;;19.27;2.85;;;11.00;99.90;;;;;;5038705;28;20049;-64
2023/06/02 01:26:34;;;;;;;16.02;3.65;;;11.00;99.90;;;;;;5042627;28;20048;-64
2023/06/02 01:29:01;;;;;;;23.77;3.58;;;10.90;99.90;;;;;;5028727;28;20400;-64
2023/06/02 01:31:35;;;;;;;14.77;2.72;;;11.00;99.90;;;;;;5048257;28;20472;-65
2023/06/02 01:34:08;;;;;;;20.15;3.53;;;11.00;99.90;;;;;;5045324;28;20049;-64
2023/06/02 01:36:38;;;;;;;18.25;3.85;;;11.00;99.90;;;;;;5045887;28;20552;-64
2023/06/02 01:39:07;;;;;;;18.23;3.13;;;11.00;99.90;;;;;;5049043;28;20347;-64
2023/06/02 01:41:37;;;;;;;12.00;2.78;;;11.00;99.90;;;;;;5046766;28;20112;-64
2023/06/02 01:44:03;;;;;;;16.20;3.70;;;11.00;99.90;;;;;;5047213;28;20053;-64
2023/06/02 01:46:30;;;;;;;20.88;4.22;;;10.90;99.90;;;;;;5036761;28;20079;-64
2023/06/02 01:48:56;;;;;;;22.77;4.07;;;11.00;99.90;;;;;;5021309;28;20045;-65
2023/06/02 01:51:22;;;;;;;20.00;3.45;;;11.00;99.90;;;;;;5043784;28;20044;-64
2023/06/02 01:53:48;;;;;;;14.27;3.22;;;11.00;99.90;;;;;;5046533;28;20049;-64
2023/06/02 01:56:13;;;;;;;18.73;3.40;;;11.00;99.90;;;;;;5048058;28;20044;-64
2023/06/02 01:58:40;;;;;;;15.10;2.42;;;11.00;99.90;;;;;;5046337;28;20371;-64
2023/06/02 02:01:06;;;;;;;16.08;2.75;;;11.00;99.90;;;;;;5041434;28;20091;-65
2023/06/02 02:03:32;;;;;;;33.72;4.07;;;11.00;99.90;;;;;;5046449;28;20049;-65
2023/06/02 02:05:59;;;;;;;14.25;2.65;;;11.00;99.90;;;;;;5013858;28;20554;-64
2023/06/02 02:08:25;;;;;;;22.30;3.65;;;11.10;99.90;;;;;;5047740;28;20041;-64
2023/06/02 02:10:51;;;;;;;21.98;3.45;;;11.10;99.90;;;;;;5044708;28;20786;-64
2023/06/02 02:13:16;;;;;;;18.38;3.40;;;11.10;99.90;;;;;;5048338;28;20123;-65
2023/06/02 02:15:44;;;;;;;23.23;3.72;;;11.10;99.90;;;;;;5027818;28;20048;-64
2023/06/02 02:18:09;;;;;;;17.13;3.03;;;11.10;99.90;;;;;;5048288;28;20048;-64
2023/06/02 02:20:40;;;;;;;16.08;2.97;;;11.10;99.90;;;;;;5044286;28;20045;-64
2023/06/02 02:23:06;;;;;;;15.23;2.83;;;11.10;99.90;;;;;;5029981;28;20052;-65
2023/06/02 02:25:31;;;;;;;20.27;2.75;;;11.10;99.90;;;;;;5028730;28;20164;-64
2023/06/02 02:27:57;;;;;;;19.55;3.05;;;11.10;99.90;;;;;;5046921;28;20037;-65
2023/06/02 02:30:23;;;;;;;24.98;4.35;;;11.10;99.90;;;;;;5040081;28;20041;-64
2023/06/02 02:32:51;;;;;;;18.38;3.45;;;11.10;99.90;;;;;;5027958;28;20049;-65
2023/06/02 02:35:17;;;;;;;18.92;3.08;;;11.10;99.90;;;;;;5048129;28;20110;-64
2023/06/02 02:37:44;;;;;;;21.10;3.78;;;11.10;99.90;;;;;;5045553;28;20350;-64
2023/06/02 02:40:10;;;;;;;21.02;3.05;;;11.10;99.90;;;;;;5028444;28;20510;-65
2023/06/02 02:42:36;;;;;;;19.73;3.03;;;11.10;99.90;;;;;;5046033;28;20037;-64
2023/06/02 02:45:02;;;;;;;10.95;2.60;;;11.10;99.90;;;;;;5029298;28;20544;-65
2023/06/02 02:47:28;;;;;;;24.65;4.47;;;11.20;99.90;;;;;;5029291;28;20049;-64
2023/06/02 02:49:54;;;;;;;23.05;3.72;;;11.20;99.90;;;;;;5026513;28;20436;-64
2023/06/02 02:52:21;;;;;;;23.08;3.38;;;11.20;99.90;;;;;;5029390;28;20120;-64
2023/06/02 02:54:47;;;;;;;18.75;2.97;;;11.20;99.90;;;;;;5026840;28;20450;-64
2023/06/02 02:57:13;;;;;;;23.58;3.30;;;11.20;99.90;;;;;;5029420;28;20053;-64
2023/06/02 02:59:40;;;;;;;27.13;3.65;;;11.20;99.90;;;;;;5044956;28;20114;-64
2023/06/02 03:02:07;;;;;;;20.98;3.03;;;11.20;99.90;;;;;;5039359;28;20045;-65
2023/06/02 03:04:34;;;;;;;23.45;4.00;;;11.20;99.90;;;;;;5046287;28;20074;-64
2023/06/02 03:07:01;;;;;;;17.98;3.47;;;11.20;99.90;;;;;;5045948;28;20056;-64
2023/06/02 03:09:27;;;;;;;27.58;5.40;;;11.20;99.90;;;;;;5046311;28;20575;-64
2023/06/02 03:11:53;;;;;;;23.05;3.65;;;11.20;99.90;;;;;;5042829;28;20086;-64
2023/06/02 03:14:19;;;;;;;25.08;4.00;;;11.20;99.90;;;;;;5028933;28;20041;-64
2023/06/02 03:16:45;;;;;;;26.65;3.72;;;11.20;99.90;;;;;;5044783;28;20052;-64
2023/06/02 03:19:15;;;;;;;29.13;3.85;;;11.20;99.90;;;;;;5046755;28;20044;-64
2023/06/02 03:21:41;;;;;;;20.10;3.65;;;11.10;99.90;;;;;;5026796;28;20053;-64
2023/06/02 03:24:16;;;;;;;18.65;3.47;;;11.20;99.90;;;;;;5045675;28;20561;-63
2023/06/02 03:26:42;;;;;;;23.45;3.05;;;11.20;99.90;;;;;;5047154;28;20056;-64
2023/06/02 03:29:09;;;;;;;23.00;3.25;;;11.10;99.90;;;;;;5044296;28;20119;-64
2023/06/02 03:31:36;;;;;;;24.98;4.47;;;11.20;99.90;;;;;;5042765;28;20419;-64
2023/06/02 03:34:05;;;;;;;31.63;5.28;;;11.20;99.90;;;;;;5036249;28;20056;-64
2023/06/02 03:36:37;;;;;;;24.73;3.20;;;11.20;99.90;;;;;;5046699;28;20052;-65
2023/06/02 03:39:08;;;;;;;17.02;3.03;;;11.20;99.90;;;;;;5045553;28;20045;-64
2023/06/02 03:41:35;;;;;;;23.20;3.50;;;11.20;99.90;;;;;;5045810;28;20048;-64
2023/06/02 03:44:02;;;;;;;26.60;3.70;;;11.30;99.90;;;;;;5044606;28;20049;-64
2023/06/02 03:46:28;;;;;;;25.67;4.53;;;11.30;99.90;;;;;;5045139;28;20171;-63
2023/06/02 03:48:55;;;;;;;22.20;4.15;;;11.30;99.90;;;;;;5046338;28;20545;-64
2023/06/02 03:51:21;;;;;;;24.35;4.10;;;11.30;99.90;;;;;;5025669;28;20037;-64
2023/06/02 03:53:49;;;;;;;27.38;4.38;;;11.30;99.90;;;;;;5046456;28;20048;-64
2023/06/02 03:56:15;;;;;;;24.30;3.65;;;11.30;99.90;;;;;;5044867;28;20044;-64
2023/06/02 03:58:41;;;;;;;28.30;3.88;;;11.30;99.90;;;;;;5027608;28;20529;-64
2023/06/02 04:01:07;;;;;;;25.25;4.38;;;11.30;99.90;;;;;;5044006;28;20045;-64
2023/06/02 04:03:36;;;;;;;21.27;3.65;;;11.40;99.90;;;;;;5044344;28;20049;-64
2023/06/02 04:06:03;;;;;;;25.60;3.80;;;11.30;99.90;;;;;;5046367;28;20045;-64
2023/06/02 04:08:29;;;;;;;24.73;4.45;;;11.40;99.90;;;;;;5026213;28;20057;-64
2023/06/02 04:10:55;;;;;;;27.35;4.45;;;11.40;99.90;;;;;;5044679;28;20045;-64
2023/06/02 04:13:21;;;;;;;24.65;4.43;;;11.40;99.90;;;;;;5043842;28;20076;-65
2023/06/02 04:15:47;;;;;;;23.75;4.18;;;11.50;99.90;;;;;;5042942;28;20046;-64
2023/06/02 04:18:13;;;;;;;26.38;4.18;;;11.50;99.90;;;;;;5031017;28;20041;-64
2023/06/02 04:20:38;;;;;;;29.00;5.07;;;11.50;99.90;;;;;;5019610;28;20056;-64
2023/06/02 04:23:04;;;;;;;34.53;4.57;;;11.60;99.90;;;;;;5035547;28;20541;-64
2023/06/02 04:25:30;;;;;;;26.98;4.15;;;11.60;99.90;;;;;;5036065;28;20403;-64
2023/06/02 04:27:55;;;;;;;28.80;4.28;;;11.60;99.90;;;;;;5003304;28;20377;-64
2023/06/02 04:30:21;;;;;;;21.55;3.72;;;11.60;99.90;;;;;;5033494;28;20045;-65
2023/06/02 04:32:47;;;;;;;26.48;4.22;;;11.70;99.90;;;;;;5023196;28;20045;-65
2023/06/02 04:35:13;;;;;;;24.48;3.80;;;11.70;99.90;;;;;;5031720;28;20057;-64
2023/06/02 04:37:39;;;;;;;29.55;5.22;;;11.70;99.90;;;;;;5039553;28;20037;-65
2023/06/02 04:40:06;;;;;;;28.77;4.20;;;11.70;99.90;;;;;;5031045;28;20529;-64
2023/06/02 04:42:32;;;;;;;28.88;4.10;;;11.80;99.90;;;;;;5026974;28;20076;-64
2023/06/02 04:45:03;;;;;;;19.05;3.75;;;11.80;99.90;;;;;;5037234;28;20045;-65
2023/06/02 04:47:28;;;;;;;22.13;4.00;;;11.80;99.90;;;;;;5034713;28;20048;-64
2023/06/02 04:49:54;;;;;;;40.08;5.75;;;11.90;99.90;;;;;;5038282;28;20044;-65
2023/06/02 04:52:20;;;;;;;32.22;5.78;;;11.90;99.90;;;;;;5034939;28;20072;-65
2023/06/02 04:54:47;;;;;;;32.05;5.57;;;11.90;99.90;;;;;;5039942;28;20079;-64
2023/06/02 04:57:13;;;;;;;25.73;4.40;;;12.00;99.90;;;;;;5015997;28;20049;-65
2023/06/02 04:59:38;;;;;;;16.63;3.50;;;12.00;99.90;;;;;;5019468;28;20046;-64
2023/06/02 05:02:04;;;;;;;29.75;4.43;;;12.00;99.90;;;;;;5042735;28;20052;-64
2023/06/02 05:04:30;;;;;;;36.20;5.07;;;12.00;99.90;;;;;;5017782;28;20041;-65
2023/06/02 05:06:56;;;;;;;26.55;4.18;;;12.00;99.90;;;;;;5038120;28;20397;-64
2023/06/02 05:09:22;;;;;;;31.05;4.25;;;12.10;99.90;;;;;;5018805;28;20094;-64
2023/06/02 05:11:48;;;;;;;32.22;5.25;;;12.10;99.90;;;;;;5031515;28;20090;-64
2023/06/02 05:14:13;;;;;;;25.15;5.00;;;12.10;99.90;;;;;;5047321;28;20053;-64
2023/06/02 05:16:44;;;;;;;28.83;4.80;;;12.10;99.90;;;;;;5048704;28;20368;-64
2023/06/02 05:19:10;;;;;;;24.30;4.25;;;12.10;99.90;;;;;;5047061;28;20597;-64
2023/06/02 05:21:35;;;;;;;31.02;4.60;;;12.20;99.90;;;;;;5047443;28;20145;-64
2023/06/02 05:24:01;;;;;;;31.42;5.10;;;12.20;99.90;;;;;;5015539;28;20033;-64
2023/06/02 05:26:27;;;;;;;32.05;4.38;;;12.30;99.90;;;;;;5028727;28;20380;-64
2023/06/02 05:28:53;;;;;;;29.67;5.00;;;12.40;99.90;;;;;;5047386;28;20060;-64
2023/06/02 05:31:20;;;;;;;30.92;4.65;;;12.40;99.90;;;;;;5027928;28;20056;-64
2023/06/02 05:33:45;;;;;;;35.75;5.25;;;12.40;99.90;;;;;;5049114;28;20068;-64
2023/06/02 05:36:11;;;;;;;37.70;6.28;;;12.50;99.90;;;;;;5048102;28;20077;-64
2023/06/02 05:38:43;;;;;;;33.78;5.03;;;12.50;99.90;;;;;;5044363;28;20041;-64
2023/06/02 05:41:12;;;;;;;40.92;5.05;;;12.60;99.90;;;;;;5042961;28;20045;-64
2023/06/02 05:43:38;;;;;;;30.33;4.65;;;12.60;99.90;;;;;;5029289;28;20396;-64
2023/06/02 05:46:03;;;;;;;34.53;4.90;;;12.70;99.90;;;;;;5031146;28;20053;-64
2023/06/02 05:48:29;;;;;;;27.23;4.72;;;12.80;99.90;;;;;;5046231;28;20454;-65
2023/06/02 05:50:55;;;;;;;24.10;5.10;;;12.90;99.90;;;;;;5046974;28;20127;-64
2023/06/02 05:53:20;;;;;;;27.60;4.20;;;13.00;99.90;;;;;;5029324;28;20048;-64
2023/06/02 05:55:46;;;;;;;30.35;4.75;;;13.10;99.90;;;;;;5013330;28;20114;-64
2023/06/02 05:58:12;;;;;;;27.83;4.78;;;13.30;99.90;;;;;;5047889;28;20403;-64
2023/06/02 06:00:41;;;;;;;50.33;4.97;;;13.40;99.90;;;;;;5035429;28;20061;-64
2023/06/02 06:03:07;;;;;;;26.60;3.70;;;13.60;99.90;;;;;;5048084;28;20163;-64
2023/06/02 06:05:32;;;;;;;25.13;4.18;;;13.70;99.90;;;;;;5045772;28;20295;-64
2023/06/02 06:07:58;;;;;;;23.33;5.32;;;13.80;99.90;;;;;;5048693;28;20584;-64
2023/06/02 06:10:24;;;;;;;25.65;4.13;;;13.80;99.90;;;;;;5021810;28;20041;-64
2023/06/02 06:12:50;;;;;;;33.55;4.93;;;13.80;99.90;;;;;;5029328;28;20136;-64
2023/06/02 06:15:16;;;;;;;28.23;4.05;;;13.80;99.90;;;;;;5013050;28;20513;-64
2023/06/02 06:17:51;;;;;;;29.02;4.20;;;13.80;99.90;;;;;;5046537;28;20096;-64
2023/06/02 06:20:18;;;;;;;29.98;5.15;;;13.80;99.90;;;;;;5028669;28;20049;-64
2023/06/02 06:22:44;;;;;;;34.00;4.95;;;13.80;99.90;;;;;;5038150;28;20049;-64
2023/06/02 06:25:10;;;;;;;34.97;4.57;;;13.90;99.90;;;;;;5048341;28;20116;-64
2023/06/02 06:27:37;;;;;;;24.33;4.30;;;14.00;99.90;;;;;;5045700;28;20041;-64
2023/06/02 06:30:04;;;;;;;32.28;4.57;;;14.00;99.90;;;;;;5030135;28;20514;-64
2023/06/02 06:32:30;;;;;;;23.52;4.15;;;14.10;99.90;;;;;;5046322;28;20075;-64
2023/06/02 06:34:57;;;;;;;23.70;3.72;;;14.10;99.90;;;;;;5046237;28;20083;-64
2023/06/02 06:37:22;;;;;;;21.10;3.80;;;14.10;99.90;;;;;;5029592;28;20087;-64
2023/06/02 06:39:48;;;;;;;31.63;5.45;;;14.20;99.90;;;;;;5045455;28;20049;-65
2023/06/02 06:42:14;;;;;;;37.67;5.05;;;14.20;99.90;;;;;;5041353;28;20087;-65
2023/06/02 06:44:39;;;;;;;19.80;4.13;;;14.20;99.90;;;;;;5041193;28;20076;-65
2023/06/02 06:47:05;;;;;;;35.38;4.60;;;14.10;99.90;;;;;;5041984;28;20123;-64
2023/06/02 06:49:31;;;;;;;19.60;3.78;;;14.10;99.90;;;;;;5021657;28;20450;-64
2023/06/02 06:51:57;;;;;;;26.70;4.40;;;14.10;99.90;;;;;;5041445;28;20095;-65
2023/06/02 06:54:23;;;;;;;17.60;3.95;;;14.20;99.90;;;;;;5046794;28;20040;-64
2023/06/02 06:56:49;;;;;;;26.05;3.55;;;14.20;99.90;;;;;;5045190;28;20037;-64
2023/06/02 06:59:14;;;;;;;22.00;4.55;;;14.20;99.90;;;;;;5012954;28;20053;-64
2023/06/02 07:01:40;;;;;;;27.98;3.85;;;14.30;99.90;;;;;;5040027;28;20083;-65
2023/06/02 07:04:06;;;;;;;29.30;4.10;;;14.20;99.90;;;;;;5044003;28;20537;-65
2023/06/02 07:06:36;;;;;;;18.30;3.67;;;14.20;99.90;;;;;;5007012;28;20444;-65
2023/06/02 07:09:02;;;;;;;18.60;3.83;;;14.30;99.90;;;;;;5042190;28;20387;-65
2023/06/02 07:11:28;;;;;;;23.88;3.22;;;14.40;99.90;;;;;;5037809;28;20114;-65
2023/06/02 07:13:55;;;;;;;17.00;3.10;;;14.50;99.90;;;;;;5020371;28;20487;-65
2023/06/02 07:16:21;;;;;;;14.80;2.58;;;14.60;99.90;;;;;;5028087;28;20128;-65
2023/06/02 07:18:48;;;;;;;22.95;3.95;;;14.70;99.90;;;;;;5016001;28;20049;-65
2023/06/02 07:21:14;;;;;;;16.92;3.35;;;14.80;99.90;;;;;;5002633;28;20056;-65
2023/06/02 07:23:39;;;;;;;13.23;2.78;;;15.00;99.90;;;;;;5031589;28;20041;-65
2023/06/02 07:26:06;;;;;;;25.92;5.22;;;15.10;99.90;;;;;;5037523;28;20076;-65
2023/06/02 07:28:31;;;;;;;18.17;3.15;;;15.30;99.90;;;;;;5040674;28;20411;-64
2023/06/02 07:30:57;;;;;;;10.68;2.78;;;15.40;99.90;;;;;;5041840;28;20045;-64
2023/06/02 07:33:23;;;;;;;14.43;4.18;;;15.50;99.60;;;;;;5040541;28;20052;-65
2023/06/02 07:35:49;;;;;;;11.95;2.03;;;15.70;97.30;;;;;;5041338;28;20055;-65
2023/06/02 07:38:14;;;;;;;13.88;2.20;;;15.80;94.70;;;;;;5021720;28;20475;-65
2023/06/02 07:40:40;;;;;;;7.80;1.80;;;15.80;78.20;;;;;;5005441;28;20049;-66
2023/06/02 07:43:06;;;;;;;5.55;1.42;;;15.90;82.40;;;;;;5040608;28;20074;-65
2023/06/02 07:45:31;;;;;;;6.47;1.88;;;16.10;70.10;;;;;;5040099;28;20059;-65
2023/06/02 07:47:58;;;;;;;7.00;1.40;;;16.10;51.50;;;;;;5042555;28;20048;-65
2023/06/02 07:50:24;;;;;;;8.02;1.40;;;16.30;56.50;;;;;;5036318;28;20053;-65
2023/06/02 07:52:50;;;;;;;7.10;1.75;;;16.50;50.00;;;;;;5028871;28;20063;-66
2023/06/02 07:55:16;;;;;;;4.85;1.48;;;16.70;34.50;;;;;;5036074;28;20144;-65
2023/06/02 07:57:42;;;;;;;5.15;1.35;;;16.70;23.40;;;;;;5029251;28;20056;-65
2023/06/02 08:00:15;;;;;;;3.05;1.02;;;16.90;20.90;;;;;;5002624;28;20416;-65
2023/06/02 08:02:43;;;;;;;3.25;1.25;;;17.10;12.90;;;;;;5004276;28;20057;-65
2023/06/02 08:05:09;;;;;;;9.65;1.48;;;17.20;8.90;;;;;;5015811;28;20045;-65
2023/06/02 08:07:35;;;;;;;10.25;1.55;;;17.20;5.80;;;;;;5014780;28;20128;-65
2023/06/02 08:10:02;;;;;;;4.68;1.02;;;17.40;2.70;;;;;;5019952;28;20033;-65
2023/06/02 08:12:28;;;;;;;2.67;0.70;;;17.50;2.40;;;;;;5021754;28;20465;-65
2023/06/02 08:14:54;;;;;;;5.93;0.88;;;17.50;1.00;;;;;;5023174;28;20144;-65
2023/06/02 08:17:20;;;;;;;1.90;0.63;;;17.50;1.00;;;;;;5007522;28;20142;-65
2023/06/02 08:19:45;;;;;;;3.22;0.70;;;17.50;1.00;;;;;;5018266;28;20053;-65
2023/06/02 08:22:11;;;;;;;6.55;0.90;;;17.60;1.00;;;;;;5026067;28;20026;-65
2023/06/02 08:24:37;;;;;;;9.20;1.17;;;17.80;1.00;;;;;;5019355;28;20041;-65
2023/06/02 08:27:04;;;;;;;3.75;0.80;;;17.80;1.00;;;;;;5025607;28;20046;-65
2023/06/02 08:29:32;;;;;;;3.03;0.63;;;18.00;1.00;;;;;;5026456;28;20057;-65
2023/06/02 08:31:58;;;;;;;5.43;0.93;;;18.30;1.00;;;;;;5013186;28;20049;-66
2023/06/02 08:34:24;;;;;;;5.65;1.38;;;18.40;1.00;;;;;;5007097;28;20046;-65
2023/06/02 08:36:56;;;;;;;1.52;0.70;;;18.40;1.00;;;;;;5017673;28;20029;-65
2023/06/02 08:39:25;;;;;;;3.05;1.23;;;18.30;1.00;;;;;;5022912;28;20509;-65
2023/06/02 08:41:53;;;;;;;2.83;0.90;;;18.20;1.00;;;;;;5005787;28;20034;-66
2023/06/02 08:44:19;;;;;;;5.10;0.90;;;18.00;1.00;;;;;;5021081;28;20573;-66
2023/06/02 08:46:51;;;;;;;4.47;0.98;;;18.10;1.00;;;;;;5008164;28;20037;-65
2023/06/02 08:49:18;;;;;;;4.20;0.98;;;18.20;1.00;;;;;;5010727;28;20045;-65
2023/06/02 08:51:51;;;;;;;3.65;1.08;;;18.40;1.00;;;;;;5017183;28;20057;-66
2023/06/02 08:54:20;;;;;;;2.55;0.98;;;18.50;1.00;;;;;;5022951;28;20049;-66
2023/06/02 08:56:49;;;;;;;6.93;1.15;;;18.50;1.00;;;;;;5004805;28;20040;-65
2023/06/02 08:59:19;;;;;;;6.70;1.35;;;18.70;1.00;;;;;;5011543;28;20091;-65
2023/06/02 09:01:47;;;;;;;2.63;0.90;;;18.60;1.00;;;;;;5034957;28;20084;-65
2023/06/02 09:04:13;;;;;;;6.97;1.20;;;18.40;1.00;;;;;;5040970;28;20094;-65
2023/06/02 09:06:39;;;;;;;3.00;1.20;;;18.10;1.00;;;;;;5026209;28;20059;-66
2023/06/02 09:09:04;;;;;;;1.92;1.00;;;18.20;1.00;;;;;;5034944;28;20041;-65
2023/06/02 09:11:31;;;;;;;7.40;1.30;;;18.30;1.00;;;;;;5029455;28;20044;-65
2023/06/02 09:13:57;;;;;;;6.00;1.00;;;18.40;1.00;;;;;;5049107;28;20465;-65
2023/06/02 09:16:37;;;;;;;3.63;0.90;;;18.30;1.00;;;;;;5048017;28;20040;-65
2023/06/02 09:19:03;;;;;;;2.03;0.88;;;18.50;1.00;;;;;;5046753;28;20045;-66
2023/06/02 09:21:32;;;;;;;4.85;0.98;;;18.90;1.00;;;;;;5030998;28;20495;-65
2023/06/02 09:24:00;;;;;;;5.93;1.08;;;18.50;1.00;;;;;;5047176;28;20106;-65
2023/06/02 09:26:28;;;;;;;1.05;0.95;;;18.20;1.00;;;;;;5031608;28;20041;-66
2023/06/02 09:29:06;;;;;;;4.40;1.42;;;18.10;1.00;;;;;;5044836;28;20041;-65
2023/06/02 09:32:04;;;;;;;6.55;1.02;;;18.20;1.00;;;;;;5030174;28;20487;-66
2023/06/02 09:34:35;;;;;;;2.90;1.30;;;18.30;1.00;;;;;;5033267;28;20507;-65
2023/06/02 09:37:12;;;;;;;2.92;1.30;;;18.30;1.00;;;;;;5046604;28;20159;-65
2023/06/02 09:39:43;;;;;;;7.45;0.90;;;18.20;1.00;;;;;;5028721;28;20076;-65
2023/06/02 09:42:17;;;;;;;2.53;0.75;;;18.10;1.00;;;;;;5017949;28;20037;-65
2023/06/02 09:45:06;;;;;;;4.07;1.13;;;18.10;1.00;;;;;;5029923;28;20594;-65
2023/06/02 09:47:42;;;;;;;2.92;1.10;;;18.20;1.00;;;;;;5049149;28;20049;-65
2023/06/02 09:50:09;;;;;;;3.58;1.02;;;18.30;1.00;;;;;;5042187;28;20491;-65
2023/06/02 09:52:35;;;;;;;3.90;0.70;;;18.40;1.00;;;;;;5038162;28;20076;-65
2023/06/02 09:55:01;;;;;;;5.57;0.80;;;18.70;1.00;;;;;;5028091;28;20059;-65
2023/06/02 09:57:30;;;;;;;1.15;0.82;;;18.80;1.00;;;;;;5046772;28;20049;-65
2023/06/02 09:59:58;;;;;;;8.40;1.23;;;18.90;1.00;;;;;;5015013;28;20060;-65
2023/06/02 10:02:25;;;;;;;7.82;1.20;;;18.80;1.00;;;;;;5036259;28;20071;-65
2023/06/02 10:04:50;;;;;;;6.03;1.13;;;18.70;1.00;;;;;;5031793;28;20034;-65
2023/06/02 10:07:31;;;;;;;5.95;1.38;;;18.50;1.00;;;;;;5008055;28;20045;-66
2023/06/02 10:10:09;;;;;;;4.13;1.20;;;18.40;1.00;;;;;;5040737;28;20080;-65
2023/06/02 10:13:08;;;;;;;6.30;1.00;;;18.60;1.00;;;;;;5044999;28;20028;-65
2023/06/02 10:16:13;;;;;;;3.42;1.15;;;18.70;1.00;;;;;;5040216;28;20095;-65
2023/06/02 10:19:03;;;;;;;14.52;1.30;;;18.50;1.00;;;;;;5027772;28;20049;-65
2023/06/02 10:21:29;;;;;;;6.07;1.02;;;18.30;1.00;;;;;;5014369;28;20091;-65
2023/06/02 10:24:24;;;;;;;3.10;0.82;;;18.20;1.00;;;;;;5038527;28;20037;-65
2023/06/02 10:27:16;;;;;;;2.13;0.93;;;18.30;1.00;;;;;;4997922;28;20061;-65
2023/06/02 10:29:43;;;;;;;5.72;1.25;;;18.70;1.00;;;;;;5028637;28;20084;-66
2023/06/02 10:32:33;;;;;;;2.50;1.25;;;18.90;1.00;;;;;;5037311;28;20049;-65
2023/06/02 10:34:59;;;;;;;4.57;1.27;;;18.80;1.00;;;;;;5045225;28;20045;-66
2023/06/02 10:37:26;;;;;;;3.58;1.10;;;18.70;1.00;;;;;;5044173;28;20143;-65
2023/06/02 10:39:56;;;;;;;3.92;1.63;;;18.70;1.00;;;;;;5043459;28;20095;-65
2023/06/02 10:42:26;;;;;;;12.35;1.60;;;18.60;1.00;;;;;;5041028;28;20053;-65
2023/06/02 10:45:13;;;;;;;2.13;1.15;;;18.90;1.00;;;;;;5042119;28;20369;-65
2023/06/02 10:47:39;;;;;;;5.82;1.55;;;18.90;1.00;;;;;;5032878;28;20101;-65
2023/06/02 10:50:07;;;;;;;4.50;1.42;;;18.70;1.00;;;;;;5032190;28;20033;-65
2023/06/02 10:52:54;;;;;;;5.43;1.27;;;18.90;8.20;;;;;;5044514;28;20161;-65
2023/06/02 10:55:20;;;;;;;8.70;1.33;;;19.10;5.80;;;;;;5034961;28;20029;-65
2023/06/02 10:58:03;;;;;;;5.40;1.77;;;19.30;1.00;;;;;;5052202;22;20058;-74
2023/06/02 11:00:32;;;;;;;5.20;1.70;;;19.10;1.00;;;;;;4947707;28;20050;-74
2023/06/02 11:03:00;;;;;;;8.65;1.92;;;19.00;1.00;;;;;;4966211;28;20105;-76
2023/06/02 11:05:27;;;;;;;7.45;1.63;;;18.80;1.00;;;;;;4949060;28;20049;-73
2023/06/02 11:08:11;;;;;;;5.63;2.35;;;18.70;1.00;;;;;;4941874;28;20125;-74
2023/06/02 11:10:44;;;;;;;3.88;1.30;;;18.70;7.00;;;;;;4987671;28;20091;-74
2023/06/02 11:13:25;;;;;;;5.20;1.27;;;18.80;1.00;;;;;;4965649;28;20121;-74
2023/06/02 11:15:58;;;;;;;2.30;1.08;;;19.20;16.60;;;;;;4961189;28;20532;-73
2023/06/02 11:18:32;;;;;;;1.55;1.05;;;19.50;4.80;;;;;;4942173;28;20089;-73
2023/06/02 11:21:01;;;;;;;8.35;1.83;;;19.30;2.00;;;;;;4974322;28;20055;-73
2023/06/02 11:23:27;;;;;;;3.00;1.30;;;19.30;3.50;;;;;;4965584;28;20571;-74
2023/06/02 11:26:06;;;;;;;3.97;1.27;;;19.30;1.00;;;;;;4966846;28;20042;-73
2023/06/02 11:28:32;;;;;;;5.97;1.60;;;19.30;1.00;;;;;;4979060;28;20496;-73
2023/06/02 11:31:17;;;;;;;4.40;1.45;;;19.50;1.00;;;;;;4957014;28;20094;-74
2023/06/02 11:33:48;;;;;;;3.33;1.48;;;19.40;3.20;;;;;;4983170;28;20054;-74
2023/06/02 11:36:16;;;;;;;5.70;1.67;;;19.30;1.30;;;;;;4957131;28;20090;-74
2023/06/02 11:38:43;;;;;;;2.50;1.17;;;19.10;1.00;;;;;;4959437;28;20440;-74
2023/06/02 11:41:17;;;;;;;7.68;1.35;;;18.90;1.00;;;;;;4986291;28;20109;-74
2023/06/02 11:43:50;;;;;;;12.80;1.65;;;18.70;1.50;;;;;;4954855;28;20061;-78
2023/06/02 11:46:18;;;;;;;5.57;1.55;;;18.60;6.70;;;;;;4950214;28;20185;-80
2023/06/02 11:48:45;;;;;;;2.85;1.27;;;18.80;13.40;;;;;;4959115;28;20133;-77
2023/06/02 11:51:13;;;;;;;6.50;2.08;;;19.00;14.80;;;;;;4952097;28;20177;-76
2023/06/02 11:53:44;;;;;;;4.63;1.63;;;18.90;9.60;;;;;;4952816;28;20104;-80
2023/06/02 11:56:15;;;;;;;9.18;2.17;;;18.70;10.30;;;;;;4962364;28;20050;-78
2023/06/02 11:58:45;;;;;;;3.97;1.50;;;18.70;7.70;;;;;;4934740;28;20097;-79
2023/06/02 12:01:17;;;;;;;3.22;1.60;;;18.90;8.10;;;;;;4942912;28;20053;-77
2023/06/02 12:04:03;;;;;;;9.45;2.00;;;19.10;18.50;;;;;;4945363;28;20585;-78
2023/06/02 12:06:31;;;;;;;6.55;1.50;;;19.20;5.50;;;;;;4933637;28;20593;-79
2023/06/02 12:09:13;;;;;;;7.32;2.00;;;19.40;6.30;;;;;;4920864;28;20043;-78
2023/06/02 12:11:39;;;;;;;3.33;1.50;;;19.60;1.80;;;;;;4943642;29;20114;-77
2023/06/02 12:14:09;;;;;;;6.90;1.35;;;19.60;14.90;;;;;;4947086;28;20085;-78
2023/06/02 12:16:40;;;;;;;6.97;2.40;;;19.50;10.80;;;;;;4936068;28;20050;-77
2023/06/02 12:19:19;;;;;;;5.20;1.50;;;19.30;3.10;;;;;;4949290;28;20115;-77
2023/06/02 12:21:46;;;;;;;5.45;1.55;;;19.10;6.80;;;;;;4938793;28;20058;-78
2023/06/02 12:24:30;;;;;;;4.85;1.33;;;19.00;8.80;;;;;;4935141;28;20440;-78
2023/06/02 12:26:56;;;;;;;5.05;1.80;;;18.90;6.20;;;;;;4932390;28;20122;-78
2023/06/02 12:29:22;;;;;;;9.68;1.60;;;18.80;4.10;;;;;;4933361;28;20390;-77
2023/06/02 12:32:05;;;;;;;5.10;1.60;;;18.70;8.40;;;;;;4950605;28;20043;-78
2023/06/02 12:34:32;;;;;;;2.08;1.50;;;18.70;12.90;;;;;;4950423;28;20477;-77
2023/06/02 12:36:58;;;;;;;4.40;1.77;;;18.90;18.50;;;;;;4951204;28;20054;-77
2023/06/02 12:39:24;;;;;;;6.65;1.65;;;19.10;23.20;;;;;;4949667;28;20397;-78
2023/06/02 12:41:51;;;;;;;3.67;1.98;;;19.30;14.60;;;;;;4920841;28;20106;-79
2023/06/02 12:44:18;;;;;;;4.75;1.55;;;19.40;14.30;;;;;;4930569;28;20035;-78
2023/06/02 12:46:44;;;;;;;5.40;1.67;;;19.30;14.90;;;;;;4954423;28;20051;-77
2023/06/02 12:49:12;;;;;;;5.03;1.80;;;19.10;9.20;;;;;;4953538;28;20119;-77